sensor_id;sensor_type;location;lat;lon;timestamp;pressure;altitude;pressure_sealevel;temperature;humidity
7333;BME280;3707;43.618;25.342;2023-04-27T00:01:17;99865.81;;;11.56;100.00
7333;BME280;3707;43.618;25.342;2023-04-27T00:03:44;99862.28;;;11.48;100.00
7333;BME280;3707;43.618;25.342;2023-04-27T00:06:11;99853.72;;;11.61;100.00
7333;BME280;3707;43.618;25.342;2023-04-27T00:08:40;99867.69;;;11.72;100.00
7333;BME280;3707;43.618;25.342;2023-04-27T00:11:07;99874.59;;;11.70;100.00
7333;BME280;3707;43.618;25.342;2023-04-27T00:13:33;99876.28;;;11.66;100.00
7333;BME280;3707;43.618;25.342;2023-04-27T00:16:00;99860.56;;;11.50;100.00
7333;BME280;3707;43.618;25.342;2023-04-27T00:18:28;99881.59;;;11.77;100.00
7333;BME280;3707;43.618;25.342;2023-04-27T00:20:55;99879.00;;;11.77;100.00
7333;BME280;3707;43.618;25.342;2023-04-27T00:23:22;99886.00;;;11.87;100.00
7333;BME280;3707;43.618;25.342;2023-04-27T00:25:50;99880.00;;;12.03;100.00
7333;BME280;3707;43.618;25.342;2023-04-27T00:28:17;99886.97;;;12.04;100.00
7333;BME280;3707;43.618;25.342;2023-04-27T00:30:44;99885.28;;;12.12;100.00
7333;BME280;3707;43.618;25.342;2023-04-27T00:33:10;99899.09;;;12.05;100.00
7333;BME280;3707;43.618;25.342;2023-04-27T00:35:37;99899.94;;;12.04;100.00
7333;BME280;3707;43.618;25.342;2023-04-27T00:38:04;99897.28;;;11.95;100.00
7333;BME280;3707;43.618;25.342;2023-04-27T00:40:31;99886.88;;;11.92;100.00
7333;BME280;3707;43.618;25.342;2023-04-27T00:42:59;99906.94;;;12.17;100.00
7333;BME280;3707;43.618;25.342;2023-04-27T00:45:26;99901.69;;;12.04;100.00
7333;BME280;3707;43.618;25.342;2023-04-27T00:47:53;99912.13;;;12.13;100.00
7333;BME280;3707;43.618;25.342;2023-04-27T00:50:26;99916.38;;;12.03;100.00
7333;BME280;3707;43.618;25.342;2023-04-27T00:52:54;99917.06;;;11.73;100.00
7333;BME280;3707;43.618;25.342;2023-04-27T00:55:21;99911.88;;;11.78;100.00
7333;BME280;3707;43.618;25.342;2023-04-27T00:57:48;99908.25;;;11.61;100.00
7333;BME280;3707;43.618;25.342;2023-04-27T01:00:16;99938.91;;;12.01;100.00
7333;BME280;3707;43.618;25.342;2023-04-27T01:02:43;99906.69;;;11.73;100.00
7333;BME280;3707;43.618;25.342;2023-04-27T01:05:10;99951.00;;;11.99;100.00
7333;BME280;3707;43.618;25.342;2023-04-27T01:07:37;99941.50;;;12.03;100.00
7333;BME280;3707;43.618;25.342;2023-04-27T01:10:05;99946.72;;;12.01;100.00
7333;BME280;3707;43.618;25.342;2023-04-27T01:12:33;99951.00;;;11.96;100.00
7333;BME280;3707;43.618;25.342;2023-04-27T01:14:59;99963.84;;;11.78;100.00
7333;BME280;3707;43.618;25.342;2023-04-27T01:17:27;99965.59;;;11.80;100.00
7333;BME280;3707;43.618;25.342;2023-04-27T01:19:54;99969.75;;;11.65;100.00
7333;BME280;3707;43.618;25.342;2023-04-27T01:22:22;99975.84;;;11.68;100.00
7333;BME280;3707;43.618;25.342;2023-04-27T01:24:50;99944.66;;;11.65;100.00
7333;BME280;3707;43.618;25.342;2023-04-27T01:27:18;99954.19;;;11.65;100.00
7333;BME280;3707;43.618;25.342;2023-04-27T01:29:44;99974.28;;;11.82;100.00
7333;BME280;3707;43.618;25.342;2023-04-27T01:32:11;99966.44;;;11.78;100.00
7333;BME280;3707;43.618;25.342;2023-04-27T01:34:38;99976.94;;;11.93;100.00
7333;BME280;3707;43.618;25.342;2023-04-27T01:37:05;99990.00;;;12.02;100.00
7333;BME280;3707;43.618;25.342;2023-04-27T01:39:32;99978.78;;;12.06;100.00
7333;BME280;3707;43.618;25.342;2023-04-27T01:42:00;99954.31;;;11.77;100.00
7333;BME280;3707;43.618;25.342;2023-04-27T01:44:28;99974.38;;;11.96;100.00
7333;BME280;3707;43.618;25.342;2023-04-27T01:46:54;99978.75;;;12.02;100.00
7333;BME280;3707;43.618;25.342;2023-04-27T01:49:21;99989.13;;;12.00;100.00
7333;BME280;3707;43.618;25.342;2023-04-27T01:51:48;99987.34;;;11.93;100.00
7333;BME280;3707;43.618;25.342;2023-04-27T01:54:15;99989.78;;;11.75;100.00
7333;BME280;3707;43.618;25.342;2023-04-27T01:56:42;99994.13;;;11.73;100.00
7333;BME280;3707;43.618;25.342;2023-04-27T01:59:10;99989.72;;;11.69;100.00
7333;BME280;3707;43.618;25.342;2023-04-27T02:01:37;99985.09;;;11.37;100.00
7333;BME280;3707;43.618;25.342;2023-04-27T02:04:04;99976.34;;;11.29;100.00
7333;BME280;3707;43.618;25.342;2023-04-27T02:06:31;99987.69;;;11.39;100.00
7333;BME280;3707;43.618;25.342;2023-04-27T02:08:57;99985.75;;;11.21;100.00
7333;BME280;3707;43.618;25.342;2023-04-27T02:11:24;99980.81;;;11.45;100.00
7333;BME280;3707;43.618;25.342;2023-04-27T02:13:51;99983.44;;;11.49;100.00
7333;BME280;3707;43.618;25.342;2023-04-27T02:16:20;99986.09;;;11.52;100.00
7333;BME280;3707;43.618;25.342;2023-04-27T02:18:46;99983.41;;;11.44;100.00
7333;BME280;3707;43.618;25.342;2023-04-27T02:21:13;99988.81;;;11.67;100.00
7333;BME280;3707;43.618;25.342;2023-04-27T02:23:40;99994.75;;;11.54;100.00
7333;BME280;3707;43.618;25.342;2023-04-27T02:26:07;99998.28;;;11.63;100.00
7333;BME280;3707;43.618;25.342;2023-04-27T02:28:33;99995.56;;;11.50;100.00
7333;BME280;3707;43.618;25.342;2023-04-27T02:31:00;99988.59;;;11.45;100.00
7333;BME280;3707;43.618;25.342;2023-04-27T02:33:28;100005.25;;;11.66;100.00
7333;BME280;3707;43.618;25.342;2023-04-27T02:35:55;99923.25;;;10.99;100.00
7333;BME280;3707;43.618;25.342;2023-04-27T02:38:22;99993.84;;;11.50;100.00
7333;BME280;3707;43.618;25.342;2023-04-27T02:40:52;99995.81;;;11.71;100.00
7333;BME280;3707;43.618;25.342;2023-04-27T02:43:19;100001.84;;;11.70;100.00
7333;BME280;3707;43.618;25.342;2023-04-27T02:45:46;100009.41;;;11.47;100.00
7333;BME280;3707;43.618;25.342;2023-04-27T02:48:12;100004.88;;;11.29;100.00
7333;BME280;3707;43.618;25.342;2023-04-27T02:50:41;100005.16;;;11.55;100.00
7333;BME280;3707;43.618;25.342;2023-04-27T02:53:08;100005.97;;;11.50;100.00
7333;BME280;3707;43.618;25.342;2023-04-27T02:55:36;99979.06;;;11.43;100.00
7333;BME280;3707;43.618;25.342;2023-04-27T02:58:02;99986.69;;;11.26;100.00
7333;BME280;3707;43.618;25.342;2023-04-27T03:00:29;99986.59;;;11.20;100.00
7333;BME280;3707;43.618;25.342;2023-04-27T03:02:56;100006.63;;;11.32;100.00
7333;BME280;3707;43.618;25.342;2023-04-27T03:05:24;100001.50;;;11.36;100.00
7333;BME280;3707;43.618;25.342;2023-04-27T03:07:54;99983.28;;;11.30;100.00
7333;BME280;3707;43.618;25.342;2023-04-27T03:10:20;100010.97;;;11.34;100.00
7333;BME280;3707;43.618;25.342;2023-04-27T03:12:47;99989.31;;;11.29;100.00
7333;BME280;3707;43.618;25.342;2023-04-27T03:15:14;100017.19;;;11.49;100.00
7333;BME280;3707;43.618;25.342;2023-04-27T03:17:41;100012.88;;;11.49;100.00
7333;BME280;3707;43.618;25.342;2023-04-27T03:20:08;100014.78;;;11.67;100.00
7333;BME280;3707;43.618;25.342;2023-04-27T03:22:36;100022.41;;;11.50;100.00
7333;BME280;3707;43.618;25.342;2023-04-27T03:25:05;100024.41;;;11.72;100.00
7333;BME280;3707;43.618;25.342;2023-04-27T03:27:32;100026.81;;;11.57;100.00
7333;BME280;3707;43.618;25.342;2023-04-27T03:29:59;100026.66;;;11.40;100.00
7333;BME280;3707;43.618;25.342;2023-04-27T03:32:26;100026.59;;;11.36;100.00
7333;BME280;3707;43.618;25.342;2023-04-27T03:34:52;100030.22;;;11.52;100.00
7333;BME280;3707;43.618;25.342;2023-04-27T03:37:20;100032.03;;;11.59;100.00
7333;BME280;3707;43.618;25.342;2023-04-27T03:39:47;100010.09;;;11.31;100.00
7333;BME280;3707;43.618;25.342;2023-04-27T03:42:15;100026.56;;;11.34;100.00
7333;BME280;3707;43.618;25.342;2023-04-27T03:44:42;100008.13;;;11.10;100.00
7333;BME280;3707;43.618;25.342;2023-04-27T03:47:09;100035.84;;;11.14;100.00
7333;BME280;3707;43.618;25.342;2023-04-27T03:49:35;100025.66;;;11.31;100.00
7333;BME280;3707;43.618;25.342;2023-04-27T03:52:02;100021.31;;;11.28;100.00
7333;BME280;3707;43.618;25.342;2023-04-27T03:54:30;100037.03;;;11.40;100.00
7333;BME280;3707;43.618;25.342;2023-04-27T03:56:57;100028.53;;;11.57;100.00
7333;BME280;3707;43.618;25.342;2023-04-27T03:59:27;100040.50;;;11.42;100.00
7333;BME280;3707;43.618;25.342;2023-04-27T04:01:55;100039.41;;;11.22;100.00
7333;BME280;3707;43.618;25.342;2023-04-27T04:04:22;100036.88;;;11.28;100.00
7333;BME280;3707;43.618;25.342;2023-04-27T04:06:49;100048.97;;;11.26;100.00
7333;BME280;3707;43.618;25.342;2023-04-27T04:09:16;100043.63;;;11.14;100.00
7333;BME280;3707;43.618;25.342;2023-04-27T04:11:43;100055.56;;;11.00;100.00
7333;BME280;3707;43.618;25.342;2023-04-27T04:14:10;100052.22;;;11.10;100.00
7333;BME280;3707;43.618;25.342;2023-04-27T04:16:38;100050.47;;;11.08;100.00
7333;BME280;3707;43.618;25.342;2023-04-27T04:19:05;100034.13;;;11.15;100.00
7333;BME280;3707;43.618;25.342;2023-04-27T04:21:31;100064.81;;;11.51;100.00
7333;BME280;3707;43.618;25.342;2023-04-27T04:23:58;100061.31;;;11.44;100.00
7333;BME280;3707;43.618;25.342;2023-04-27T04:26:25;100067.38;;;11.44;100.00
7333;BME280;3707;43.618;25.342;2023-04-27T04:28:52;100064.81;;;11.51;100.00
7333;BME280;3707;43.618;25.342;2023-04-27T04:31:18;100046.13;;;11.07;100.00
7333;BME280;3707;43.618;25.342;2023-04-27T04:33:47;100072.31;;;11.25;100.00
7333;BME280;3707;43.618;25.342;2023-04-27T04:36:14;100078.34;;;11.24;100.00
7333;BME280;3707;43.618;25.342;2023-04-27T04:38:41;100077.53;;;11.26;100.00
7333;BME280;3707;43.618;25.342;2023-04-27T04:41:07;100078.47;;;11.34;100.00
7333;BME280;3707;43.618;25.342;2023-04-27T04:43:34;100079.97;;;11.14;100.00
7333;BME280;3707;43.618;25.342;2023-04-27T04:46:01;100077.16;;;10.98;100.00
7333;BME280;3707;43.618;25.342;2023-04-27T04:48:28;100073.09;;;11.16;100.00
7333;BME280;3707;43.618;25.342;2023-04-27T04:50:56;100085.94;;;11.07;100.00
7333;BME280;3707;43.618;25.342;2023-04-27T04:53:23;100073.69;;;10.97;100.00
7333;BME280;3707;43.618;25.342;2023-04-27T04:55:50;100078.19;;;11.10;100.00
7333;BME280;3707;43.618;25.342;2023-04-27T04:58:17;100082.75;;;11.31;100.00
7333;BME280;3707;43.618;25.342;2023-04-27T05:00:44;100091.41;;;11.31;100.00
7333;BME280;3707;43.618;25.342;2023-04-27T05:03:10;100089.72;;;11.35;100.00
7333;BME280;3707;43.618;25.342;2023-04-27T05:05:37;100070.69;;;11.33;100.00
7333;BME280;3707;43.618;25.342;2023-04-27T05:08:05;100100.50;;;11.68;100.00
7333;BME280;3707;43.618;25.342;2023-04-27T05:10:32;100094.75;;;11.21;100.00
7333;BME280;3707;43.618;25.342;2023-04-27T05:12:59;100093.25;;;11.38;100.00
7333;BME280;3707;43.618;25.342;2023-04-27T05:15:25;100076.69;;;11.29;100.00
7333;BME280;3707;43.618;25.342;2023-04-27T05:17:52;100014.06;;;11.00;100.00
7333;BME280;3707;43.618;25.342;2023-04-27T05:20:19;100096.75;;;11.42;100.00
7333;BME280;3707;43.618;25.342;2023-04-27T05:22:46;100102.78;;;11.39;100.00
7333;BME280;3707;43.618;25.342;2023-04-27T05:25:14;100107.25;;;11.53;100.00
7333;BME280;3707;43.618;25.342;2023-04-27T05:27:41;100105.47;;;11.47;100.00
7333;BME280;3707;43.618;25.342;2023-04-27T05:30:08;100086.13;;;11.22;100.00
7333;BME280;3707;43.618;25.342;2023-04-27T05:32:35;100024.25;;;10.85;100.00
7333;BME280;3707;43.618;25.342;2023-04-27T05:35:02;100112.34;;;11.43;100.00
7333;BME280;3707;43.618;25.342;2023-04-27T05:37:30;100116.72;;;11.48;100.00
7333;BME280;3707;43.618;25.342;2023-04-27T05:39:57;100115.00;;;11.50;100.00
7333;BME280;3707;43.618;25.342;2023-04-27T05:42:25;100116.84;;;11.60;100.00
7333;BME280;3707;43.618;25.342;2023-04-27T05:44:52;100113.25;;;11.49;100.00
7333;BME280;3707;43.618;25.342;2023-04-27T05:47:18;100120.25;;;11.54;100.00
7333;BME280;3707;43.618;25.342;2023-04-27T05:49:49;100120.34;;;11.62;100.00
7333;BME280;3707;43.618;25.342;2023-04-27T05:52:16;100120.31;;;11.60;100.00
7333;BME280;3707;43.618;25.342;2023-04-27T05:54:45;100120.34;;;11.62;100.00
7333;BME280;3707;43.618;25.342;2023-04-27T05:57:12;100113.94;;;11.32;100.00
7333;BME280;3707;43.618;25.342;2023-04-27T05:59:40;100128.25;;;11.71;100.00
7333;BME280;3707;43.618;25.342;2023-04-27T06:02:07;100104.63;;;11.50;100.00
7333;BME280;3707;43.618;25.342;2023-04-27T06:04:34;100129.81;;;11.55;100.00
7333;BME280;3707;43.618;25.342;2023-04-27T06:07:01;100135.81;;;11.53;100.00
7333;BME280;3707;43.618;25.342;2023-04-27T06:09:32;100125.56;;;11.62;100.00
7333;BME280;3707;43.618;25.342;2023-04-27T06:11:59;100126.81;;;11.99;100.00
7333;BME280;3707;43.618;25.342;2023-04-27T06:14:27;100119.81;;;11.87;100.00
7333;BME280;3707;43.618;25.342;2023-04-27T06:16:55;100128.41;;;11.84;100.00
7333;BME280;3707;43.618;25.342;2023-04-27T06:19:22;100134.56;;;11.92;100.00
7333;BME280;3707;43.618;25.342;2023-04-27T06:21:49;100125.84;;;11.86;100.00
7333;BME280;3707;43.618;25.342;2023-04-27T06:24:16;100120.47;;;11.71;100.00
7333;BME280;3707;43.618;25.342;2023-04-27T06:26:43;100129.03;;;11.67;100.00
7333;BME280;3707;43.618;25.342;2023-04-27T06:29:10;100132.66;;;11.75;100.00
7333;BME280;3707;43.618;25.342;2023-04-27T06:31:37;100132.69;;;11.81;100.00
7333;BME280;3707;43.618;25.342;2023-04-27T06:34:05;100130.44;;;12.14;100.00
7333;BME280;3707;43.618;25.342;2023-04-27T06:36:32;100117.59;;;12.31;100.00
7333;BME280;3707;43.618;25.342;2023-04-27T06:38:59;100059.28;;;12.00;100.00
7333;BME280;3707;43.618;25.342;2023-04-27T06:41:26;100119.59;;;12.62;100.00
7333;BME280;3707;43.618;25.342;2023-04-27T06:43:53;100133.69;;;12.96;100.00
7333;BME280;3707;43.618;25.342;2023-04-27T06:46:20;100149.97;;;12.65;100.00
7333;BME280;3707;43.618;25.342;2023-04-27T06:48:46;100150.00;;;12.69;100.00
7333;BME280;3707;43.618;25.342;2023-04-27T06:51:14;100141.59;;;13.10;100.00
7333;BME280;3707;43.618;25.342;2023-04-27T06:53:41;100152.03;;;13.11;100.00
7333;BME280;3707;43.618;25.342;2023-04-27T06:56:10;100150.38;;;13.25;100.00
7333;BME280;3707;43.618;25.342;2023-04-27T06:58:37;100130.97;;;12.76;100.00
7333;BME280;3707;43.618;25.342;2023-04-27T07:24:37;100150.66;;;13.94;100.00
7333;BME280;3707;43.618;25.342;2023-04-27T07:27:03;100155.84;;;13.86;100.00
7333;BME280;3707;43.618;25.342;2023-04-27T07:29:30;100155.03;;;14.01;100.00
7333;BME280;3707;43.618;25.342;2023-04-27T07:31:57;100157.50;;;13.64;100.00
7333;BME280;3707;43.618;25.342;2023-04-27T07:34:24;100158.44;;;13.89;100.00
7333;BME280;3707;43.618;25.342;2023-04-27T07:36:51;100168.06;;;14.23;100.00
7333;BME280;3707;43.618;25.342;2023-04-27T07:39:19;100168.88;;;13.86;100.00
7333;BME280;3707;43.618;25.342;2023-04-27T07:41:47;100161.97;;;14.00;100.00
7333;BME280;3707;43.618;25.342;2023-04-27T07:44:16;100161.09;;;14.06;100.00
7333;BME280;3707;43.618;25.342;2023-04-27T07:46:43;100161.94;;;13.93;100.00
7333;BME280;3707;43.618;25.342;2023-04-27T07:49:11;100163.63;;;13.77;100.00
7333;BME280;3707;43.618;25.342;2023-04-27T07:51:38;100160.16;;;13.78;100.00
7333;BME280;3707;43.618;25.342;2023-04-27T07:54:05;100169.81;;;14.24;99.66
7333;BME280;3707;43.618;25.342;2023-04-27T07:56:32;100172.41;;;14.02;100.00
7333;BME280;3707;43.618;25.342;2023-04-27T07:59:00;100171.56;;;14.18;99.76
7333;BME280;3707;43.618;25.342;2023-04-27T08:01:27;100174.09;;;13.83;100.00
7333;BME280;3707;43.618;25.342;2023-04-27T08:03:54;100172.41;;;14.03;100.00
7333;BME280;3707;43.618;25.342;2023-04-27T08:06:20;100170.69;;;14.23;100.00
7333;BME280;3707;43.618;25.342;2023-04-27T08:08:47;100144.59;;;14.08;100.00
7333;BME280;3707;43.618;25.342;2023-04-27T08:11:14;100179.44;;;14.34;100.00
7333;BME280;3707;43.618;25.342;2023-04-27T08:13:41;100182.94;;;14.43;98.48
7333;BME280;3707;43.618;25.342;2023-04-27T08:16:09;100176.88;;;14.62;98.20
7333;BME280;3707;43.618;25.342;2023-04-27T08:18:35;100182.88;;;14.21;100.00
7333;BME280;3707;43.618;25.342;2023-04-27T08:21:02;100186.44;;;14.45;96.24
7333;BME280;3707;43.618;25.342;2023-04-27T08:23:29;100175.94;;;14.32;98.87
7333;BME280;3707;43.618;25.342;2023-04-27T08:25:57;100181.19;;;14.81;100.00
7333;BME280;3707;43.618;25.342;2023-04-27T08:28:24;100176.84;;;14.77;97.45
7333;BME280;3707;43.618;25.342;2023-04-27T08:30:51;100195.91;;;14.21;97.70
7333;BME280;3707;43.618;25.342;2023-04-27T08:33:19;100187.13;;;13.95;92.86
7333;BME280;3707;43.618;25.342;2023-04-27T08:35:45;100181.88;;;13.84;99.55
7333;BME280;3707;43.618;25.342;2023-04-27T08:38:12;100168.97;;;14.19;98.32
7333;BME280;3707;43.618;25.342;2023-04-27T08:40:42;100184.63;;;14.31;94.40
7333;BME280;3707;43.618;25.342;2023-04-27T08:43:09;100167.25;;;14.33;96.62
7333;BME280;3707;43.618;25.342;2023-04-27T08:45:36;100167.19;;;14.00;96.55
7333;BME280;3707;43.618;25.342;2023-04-27T08:48:03;100178.56;;;14.73;95.29
7333;BME280;3707;43.618;25.342;2023-04-27T08:50:32;100158.53;;;14.95;94.08
7333;BME280;3707;43.618;25.342;2023-04-27T08:52:59;100182.06;;;14.94;91.06
7333;BME280;3707;43.618;25.342;2023-04-27T08:55:25;100174.25;;;14.69;90.74
7333;BME280;3707;43.618;25.342;2023-04-27T08:57:54;100173.34;;;15.05;94.87
7333;BME280;3707;43.618;25.342;2023-04-27T09:00:23;100177.72;;;14.55;92.86
7333;BME280;3707;43.618;25.342;2023-04-27T09:02:50;100171.63;;;14.65;95.75
7333;BME280;3707;43.618;25.342;2023-04-27T09:05:17;100173.38;;;14.43;97.99
7333;BME280;3707;43.618;25.342;2023-04-27T09:07:56;100173.25;;;15.43;90.52
7333;BME280;3707;43.618;25.342;2023-04-27T09:10:23;100164.66;;;14.89;92.06
7333;BME280;3707;43.618;25.342;2023-04-27T09:12:54;100170.53;;;15.78;90.46
7333;BME280;3707;43.618;25.342;2023-04-27T09:15:21;100167.88;;;15.90;86.14
7333;BME280;3707;43.618;25.342;2023-04-27T09:17:53;100180.25;;;15.36;90.85
7333;BME280;3707;43.618;25.342;2023-04-27T09:20:20;100147.88;;;15.80;88.39
7333;BME280;3707;43.618;25.342;2023-04-27T09:22:49;100164.38;;;15.88;89.43
7333;BME280;3707;43.618;25.342;2023-04-27T09:25:28;100155.78;;;15.65;85.30
7333;BME280;3707;43.618;25.342;2023-04-27T09:27:56;100150.41;;;15.94;94.79
7333;BME280;3707;43.618;25.342;2023-04-27T09:30:24;100099.13;;;15.67;84.21
7333;BME280;3707;43.618;25.342;2023-04-27T09:32:52;100153.03;;;15.92;86.71
7333;BME280;3707;43.618;25.342;2023-04-27T09:35:23;100131.03;;;16.20;84.37
7333;BME280;3707;43.618;25.342;2023-04-27T09:37:51;100147.97;;;15.57;88.15
7333;BME280;3707;43.618;25.342;2023-04-27T09:40:19;100136.69;;;15.37;93.69
7333;BME280;3707;43.618;25.342;2023-04-27T09:42:50;100141.78;;;15.75;90.80
7333;BME280;3707;43.618;25.342;2023-04-27T09:45:17;100144.41;;;15.72;86.94
7333;BME280;3707;43.618;25.342;2023-04-27T09:47:44;100139.31;;;15.35;90.30
7333;BME280;3707;43.618;25.342;2023-04-27T09:50:12;100140.91;;;15.79;87.99
7333;BME280;3707;43.618;25.342;2023-04-27T09:52:39;100133.94;;;15.75;85.12
7333;BME280;3707;43.618;25.342;2023-04-27T09:55:09;100130.31;;;16.00;85.65
7333;BME280;3707;43.618;25.342;2023-04-27T09:57:39;100133.09;;;15.71;88.03
7333;BME280;3707;43.618;25.342;2023-04-27T10:00:24;100133.91;;;15.81;87.65
7333;BME280;3707;43.618;25.342;2023-04-27T10:03:04;100136.16;;;16.40;79.55
7333;BME280;3707;43.618;25.342;2023-04-27T10:05:45;100134.06;;;15.51;85.13
7333;BME280;3707;43.618;25.342;2023-04-27T10:08:15;100123.38;;;17.03;100.00
7333;BME280;3707;43.618;25.342;2023-04-27T10:10:46;100131.78;;;17.30;82.58
7333;BME280;3707;43.618;25.342;2023-04-27T10:13:20;100137.94;;;17.98;74.27
7333;BME280;3707;43.618;25.342;2023-04-27T10:15:49;100137.31;;;17.81;76.29
7333;BME280;3707;43.618;25.342;2023-04-27T10:18:27;100116.13;;;17.26;75.60
7333;BME280;3707;43.618;25.342;2023-04-27T10:20:55;100120.94;;;16.84;78.94
7333;BME280;3707;43.618;25.342;2023-04-27T10:23:23;100131.81;;;16.34;82.96
7333;BME280;3707;43.618;25.342;2023-04-27T10:25:51;100134.91;;;16.85;83.19
7333;BME280;3707;43.618;25.342;2023-04-27T10:28:18;100132.53;;;16.52;86.78
7333;BME280;3707;43.618;25.342;2023-04-27T10:30:46;100136.88;;;16.62;82.53
7333;BME280;3707;43.618;25.342;2023-04-27T10:33:21;100126.91;;;16.99;78.29
7333;BME280;3707;43.618;25.342;2023-04-27T10:35:55;100111.03;;;17.14;75.90
7333;BME280;3707;43.618;25.342;2023-04-27T10:38:27;100135.09;;;17.46;78.91
7333;BME280;3707;43.618;25.342;2023-04-27T10:40:56;100129.75;;;16.76;80.32
7333;BME280;3707;43.618;25.342;2023-04-27T10:43:27;100139.19;;;16.92;79.63
7333;BME280;3707;43.618;25.342;2023-04-27T10:45:54;100137.66;;;16.71;81.59
7333;BME280;3707;43.618;25.342;2023-04-27T10:48:33;100143.72;;;16.73;93.49
7333;BME280;3707;43.618;25.342;2023-04-27T10:51:00;100143.09;;;17.37;82.54
7333;BME280;3707;43.618;25.342;2023-04-27T10:53:33;100146.72;;;17.25;78.30
7333;BME280;3707;43.618;25.342;2023-04-27T10:55:59;100137.59;;;17.60;90.65
7333;BME280;3707;43.618;25.342;2023-04-27T10:58:27;100136.03;;;16.57;82.82
7333;BME280;3707;43.618;25.342;2023-04-27T11:00:53;100138.78;;;17.31;79.59
7333;BME280;3707;43.618;25.342;2023-04-27T11:03:22;100134.09;;;17.59;72.92
7333;BME280;3707;43.618;25.342;2023-04-27T11:05:59;100135.50;;;17.86;72.76
7333;BME280;3707;43.618;25.342;2023-04-27T11:08:27;100130.59;;;18.21;71.96
7333;BME280;3707;43.618;25.342;2023-04-27T11:10:55;100132.69;;;18.58;68.77
7333;BME280;3707;43.618;25.342;2023-04-27T11:13:23;100132.19;;;18.85;65.50
7333;BME280;3707;43.618;25.342;2023-04-27T11:15:51;100132.50;;;18.67;77.07
7333;BME280;3707;43.618;25.342;2023-04-27T11:18:21;100133.28;;;18.73;77.52
7333;BME280;3707;43.618;25.342;2023-04-27T11:20:50;100122.25;;;18.52;66.60
7333;BME280;3707;43.618;25.342;2023-04-27T11:23:24;100126.63;;;19.02;64.90
7333;BME280;3707;43.618;25.342;2023-04-27T11:25:51;100121.06;;;18.72;68.99
7333;BME280;3707;43.618;25.342;2023-04-27T11:28:19;100123.81;;;18.07;68.92
7333;BME280;3707;43.618;25.342;2023-04-27T11:30:46;100129.72;;;18.22;66.69
7333;BME280;3707;43.618;25.342;2023-04-27T11:33:13;100127.53;;;18.49;65.17
7333;BME280;3707;43.618;25.342;2023-04-27T11:35:40;100130.13;;;18.55;68.03
7333;BME280;3707;43.618;25.342;2023-04-27T11:38:15;100131.91;;;17.21;66.87
7333;BME280;3707;43.618;25.342;2023-04-27T11:40:43;100120.09;;;16.82;69.35
7333;BME280;3707;43.618;25.342;2023-04-27T11:43:11;100100.63;;;17.06;73.11
7333;BME280;3707;43.618;25.342;2023-04-27T11:45:41;100118.63;;;17.37;74.74
7333;BME280;3707;43.618;25.342;2023-04-27T11:48:12;100120.06;;;16.85;77.60
7333;BME280;3707;43.618;25.342;2023-04-27T11:50:39;100121.19;;;16.53;78.73
7333;BME280;3707;43.618;25.342;2023-04-27T11:53:06;100118.56;;;16.57;78.85
7333;BME280;3707;43.618;25.342;2023-04-27T11:55:35;100122.53;;;16.99;74.88
7333;BME280;3707;43.618;25.342;2023-04-27T11:58:05;100122.41;;;17.11;72.24
7333;BME280;3707;43.618;25.342;2023-04-27T12:00:32;100114.78;;;16.89;72.64
7333;BME280;3707;43.618;25.342;2023-04-27T12:02:59;100108.59;;;16.96;69.96
7333;BME280;3707;43.618;25.342;2023-04-27T12:05:26;100119.78;;;17.10;72.92
7333;BME280;3707;43.618;25.342;2023-04-27T12:07:53;100049.53;;;16.69;70.63
7333;BME280;3707;43.618;25.342;2023-04-27T12:10:19;100100.75;;;16.96;71.01
7333;BME280;3707;43.618;25.342;2023-04-27T12:12:47;100110.09;;;17.16;68.40
7333;BME280;3707;43.618;25.342;2023-04-27T12:15:14;99993.91;;;16.43;72.09
7333;BME280;3707;43.618;25.342;2023-04-27T12:17:41;100117.00;;;17.23;70.90
7333;BME280;3707;43.618;25.342;2023-04-27T12:20:09;100102.81;;;17.43;69.50
7333;BME280;3707;43.618;25.342;2023-04-27T12:22:36;100103.56;;;17.52;67.72
7333;BME280;3707;43.618;25.342;2023-04-27T12:25:03;100102.13;;;17.27;65.50
7333;BME280;3707;43.618;25.342;2023-04-27T12:27:30;100107.88;;;17.61;67.44
7333;BME280;3707;43.618;25.342;2023-04-27T12:29:58;100100.56;;;17.82;65.76
7333;BME280;3707;43.618;25.342;2023-04-27T12:32:25;100101.34;;;17.20;64.44
7333;BME280;3707;43.618;25.342;2023-04-27T12:34:52;100098.72;;;17.20;64.60
7333;BME280;3707;43.618;25.342;2023-04-27T12:37:19;100090.94;;;17.14;63.17
7333;BME280;3707;43.618;25.342;2023-04-27T12:39:47;100081.06;;;17.36;63.04
7333;BME280;3707;43.618;25.342;2023-04-27T12:42:13;100077.44;;;17.45;63.08
7333;BME280;3707;43.618;25.342;2023-04-27T12:44:43;100067.03;;;18.04;64.59
7333;BME280;3707;43.618;25.342;2023-04-27T12:47:12;100085.09;;;17.63;68.06
7333;BME280;3707;43.618;25.342;2023-04-27T12:49:38;100091.16;;;17.66;64.86
7333;BME280;3707;43.618;25.342;2023-04-27T12:52:05;100078.25;;;17.48;62.41
7333;BME280;3707;43.618;25.342;2023-04-27T12:54:32;100088.44;;;17.74;63.42
7333;BME280;3707;43.618;25.342;2023-04-27T12:57:00;100080.31;;;18.46;62.76
7333;BME280;3707;43.618;25.342;2023-04-27T12:59:30;100080.66;;;18.79;61.07
7333;BME280;3707;43.618;25.342;2023-04-27T13:01:57;100094.31;;;17.91;60.72
7333;BME280;3707;43.618;25.342;2023-04-27T13:04:26;100068.44;;;18.23;59.19
7333;BME280;3707;43.618;25.342;2023-04-27T13:06:53;100002.19;;;18.09;57.80
7333;BME280;3707;43.618;25.342;2023-04-27T13:09:20;100080.59;;;18.83;55.71
7333;BME280;3707;43.618;25.342;2023-04-27T13:11:47;100073.31;;;18.48;56.54
7333;BME280;3707;43.618;25.342;2023-04-27T13:14:14;100064.06;;;18.25;56.92
7333;BME280;3707;43.618;25.342;2023-04-27T13:16:41;100061.81;;;18.01;58.13
7333;BME280;3707;43.618;25.342;2023-04-27T13:19:08;100061.28;;;17.78;59.11
7333;BME280;3707;43.618;25.342;2023-04-27T13:21:36;100061.16;;;17.87;59.99